sensor_id;sensor_type;location;lat;lon;timestamp;P1;durP1;ratioP1;P2;durP2;ratioP2
60700;SDS011;46541;49.894;10.886;2024-02-28T00:01:01;32.53;;;16.90;;
60700;SDS011;46541;49.894;10.886;2024-02-28T00:03:29;32.92;;;16.27;;
60700;SDS011;46541;49.894;10.886;2024-02-28T00:05:58;34.38;;;16.70;;
60700;SDS011;46541;49.894;10.886;2024-02-28T00:08:25;35.28;;;17.27;;
60700;SDS011;46541;49.894;10.886;2024-02-28T00:10:51;31.73;;;16.38;;
60700;SDS011;46541;49.894;10.886;2024-02-28T00:13:18;35.35;;;16.48;;
60700;SDS011;46541;49.894;10.886;2024-02-28T00:15:46;30.83;;;15.73;;
60700;SDS011;46541;49.894;10.886;2024-02-28T00:18:13;32.08;;;16.35;;
60700;SDS011;46541;49.894;10.886;2024-02-28T00:20:40;29.33;;;16.05;;
60700;SDS011;46541;49.894;10.886;2024-02-28T00:23:07;33.60;;;15.73;;
60700;SDS011;46541;49.894;10.886;2024-02-28T00:25:33;35.75;;;15.80;;
60700;SDS011;46541;49.894;10.886;2024-02-28T00:28:01;34.83;;;17.10;;
60700;SDS011;46541;49.894;10.886;2024-02-28T00:30:28;33.42;;;16.45;;
60700;SDS011;46541;49.894;10.886;2024-02-28T00:32:55;34.47;;;16.33;;
60700;SDS011;46541;49.894;10.886;2024-02-28T00:35:21;29.85;;;16.30;;
60700;SDS011;46541;49.894;10.886;2024-02-28T00:37:48;35.03;;;17.73;;
60700;SDS011;46541;49.894;10.886;2024-02-28T00:40:15;29.30;;;15.93;;
60700;SDS011;46541;49.894;10.886;2024-02-28T00:42:42;32.30;;;15.50;;
60700;SDS011;46541;49.894;10.886;2024-02-28T00:45:08;29.15;;;15.15;;
60700;SDS011;46541;49.894;10.886;2024-02-28T00:47:36;32.05;;;14.95;;
60700;SDS011;46541;49.894;10.886;2024-02-28T00:50:04;31.23;;;15.05;;
60700;SDS011;46541;49.894;10.886;2024-02-28T00:52:31;30.40;;;14.90;;
60700;SDS011;46541;49.894;10.886;2024-02-28T00:54:58;29.35;;;15.23;;
60700;SDS011;46541;49.894;10.886;2024-02-28T00:57:26;28.05;;;14.60;;
60700;SDS011;46541;49.894;10.886;2024-02-28T00:59:52;30.75;;;15.80;;
60700;SDS011;46541;49.894;10.886;2024-02-28T01:02:20;23.10;;;13.20;;
60700;SDS011;46541;49.894;10.886;2024-02-28T01:04:47;28.25;;;14.57;;
60700;SDS011;46541;49.894;10.886;2024-02-28T01:07:14;27.50;;;14.15;;
60700;SDS011;46541;49.894;10.886;2024-02-28T01:09:41;33.17;;;15.15;;
60700;SDS011;46541;49.894;10.886;2024-02-28T01:12:08;35.58;;;15.68;;
60700;SDS011;46541;49.894;10.886;2024-02-28T01:14:35;33.10;;;15.05;;
60700;SDS011;46541;49.894;10.886;2024-02-28T01:17:02;27.60;;;14.90;;
60700;SDS011;46541;49.894;10.886;2024-02-28T01:19:29;28.80;;;14.60;;
60700;SDS011;46541;49.894;10.886;2024-02-28T01:21:57;26.73;;;13.93;;
60700;SDS011;46541;49.894;10.886;2024-02-28T01:24:25;27.67;;;14.23;;
60700;SDS011;46541;49.894;10.886;2024-02-28T01:26:52;29.60;;;14.73;;
60700;SDS011;46541;49.894;10.886;2024-02-28T01:29:19;34.55;;;14.93;;
60700;SDS011;46541;49.894;10.886;2024-02-28T01:31:45;26.23;;;14.60;;
60700;SDS011;46541;49.894;10.886;2024-02-28T01:34:12;26.98;;;14.25;;
60700;SDS011;46541;49.894;10.886;2024-02-28T01:36:39;25.55;;;14.02;;
60700;SDS011;46541;49.894;10.886;2024-02-28T01:39:06;25.83;;;13.93;;
60700;SDS011;46541;49.894;10.886;2024-02-28T01:41:32;23.88;;;14.02;;
60700;SDS011;46541;49.894;10.886;2024-02-28T01:43:59;26.45;;;14.38;;
60700;SDS011;46541;49.894;10.886;2024-02-28T01:46:26;26.10;;;14.23;;
60700;SDS011;46541;49.894;10.886;2024-02-28T01:48:54;24.80;;;13.32;;
60700;SDS011;46541;49.894;10.886;2024-02-28T01:51:23;26.58;;;14.70;;
60700;SDS011;46541;49.894;10.886;2024-02-28T01:53:51;26.25;;;13.95;;
60700;SDS011;46541;49.894;10.886;2024-02-28T01:56:20;33.13;;;15.15;;
60700;SDS011;46541;49.894;10.886;2024-02-28T01:58:49;26.33;;;13.48;;
60700;SDS011;46541;49.894;10.886;2024-02-28T02:01:16;32.33;;;14.98;;
60700;SDS011;46541;49.894;10.886;2024-02-28T02:03:43;30.60;;;14.80;;
60700;SDS011;46541;49.894;10.886;2024-02-28T02:06:10;29.50;;;14.68;;
60700;SDS011;46541;49.894;10.886;2024-02-28T02:08:38;26.17;;;13.82;;
60700;SDS011;46541;49.894;10.886;2024-02-28T02:11:06;30.38;;;15.68;;
60700;SDS011;46541;49.894;10.886;2024-02-28T02:13:34;26.35;;;14.75;;
60700;SDS011;46541;49.894;10.886;2024-02-28T02:16:02;28.40;;;14.32;;
60700;SDS011;46541;49.894;10.886;2024-02-28T02:18:29;28.60;;;15.38;;
60700;SDS011;46541;49.894;10.886;2024-02-28T02:21:02;25.95;;;14.15;;
60700;SDS011;46541;49.894;10.886;2024-02-28T02:23:31;25.00;;;13.52;;
60700;SDS011;46541;49.894;10.886;2024-02-28T02:25:58;24.30;;;13.30;;
60700;SDS011;46541;49.894;10.886;2024-02-28T02:28:25;24.00;;;13.45;;
60700;SDS011;46541;49.894;10.886;2024-02-28T02:30:52;23.52;;;12.57;;
60700;SDS011;46541;49.894;10.886;2024-02-28T02:33:19;21.33;;;12.50;;
60700;SDS011;46541;49.894;10.886;2024-02-28T02:35:45;25.48;;;13.93;;
60700;SDS011;46541;49.894;10.886;2024-02-28T02:38:12;24.98;;;13.63;;
60700;SDS011;46541;49.894;10.886;2024-02-28T02:40:39;27.15;;;13.85;;
60700;SDS011;46541;49.894;10.886;2024-02-28T02:43:06;23.85;;;13.35;;
60700;SDS011;46541;49.894;10.886;2024-02-28T02:45:33;24.77;;;13.63;;
60700;SDS011;46541;49.894;10.886;2024-02-28T02:48:00;23.08;;;14.15;;
60700;SDS011;46541;49.894;10.886;2024-02-28T02:50:27;23.85;;;12.60;;
60700;SDS011;46541;49.894;10.886;2024-02-28T02:52:53;21.17;;;12.80;;
60700;SDS011;46541;49.894;10.886;2024-02-28T02:55:20;24.20;;;12.90;;
60700;SDS011;46541;49.894;10.886;2024-02-28T02:57:47;22.67;;;12.77;;
60700;SDS011;46541;49.894;10.886;2024-02-28T03:00:14;20.70;;;11.85;;
60700;SDS011;46541;49.894;10.886;2024-02-28T03:02:41;19.85;;;11.50;;
60700;SDS011;46541;49.894;10.886;2024-02-28T03:05:08;20.02;;;11.07;;
60700;SDS011;46541;49.894;10.886;2024-02-28T03:07:35;21.02;;;12.55;;
60700;SDS011;46541;49.894;10.886;2024-02-28T03:10:02;17.73;;;10.48;;
60700;SDS011;46541;49.894;10.886;2024-02-28T03:12:29;18.90;;;10.50;;
60700;SDS011;46541;49.894;10.886;2024-02-28T03:14:56;21.95;;;11.23;;
60700;SDS011;46541;49.894;10.886;2024-02-28T03:17:23;20.42;;;11.52;;
60700;SDS011;46541;49.894;10.886;2024-02-28T03:19:50;17.63;;;10.80;;
60700;SDS011;46541;49.894;10.886;2024-02-28T03:22:16;16.45;;;9.82;;
60700;SDS011;46541;49.894;10.886;2024-02-28T03:24:43;18.80;;;10.45;;
60700;SDS011;46541;49.894;10.886;2024-02-28T03:27:10;14.52;;;9.52;;
60700;SDS011;46541;49.894;10.886;2024-02-28T03:29:37;17.65;;;10.48;;
60700;SDS011;46541;49.894;10.886;2024-02-28T03:32:04;19.33;;;10.30;;
60700;SDS011;46541;49.894;10.886;2024-02-28T03:34:31;16.20;;;10.93;;
60700;SDS011;46541;49.894;10.886;2024-02-28T03:36:58;18.05;;;10.77;;
60700;SDS011;46541;49.894;10.886;2024-02-28T03:39:24;16.95;;;9.98;;
60700;SDS011;46541;49.894;10.886;2024-02-28T03:41:51;15.32;;;9.57;;
60700;SDS011;46541;49.894;10.886;2024-02-28T03:44:18;17.98;;;10.75;;
60700;SDS011;46541;49.894;10.886;2024-02-28T03:46:45;18.10;;;10.25;;
60700;SDS011;46541;49.894;10.886;2024-02-28T03:49:12;16.35;;;9.65;;
60700;SDS011;46541;49.894;10.886;2024-02-28T03:51:39;18.17;;;10.20;;
60700;SDS011;46541;49.894;10.886;2024-02-28T03:54:07;17.52;;;10.32;;
60700;SDS011;46541;49.894;10.886;2024-02-28T03:56:35;19.20;;;10.50;;
60700;SDS011;46541;49.894;10.886;2024-02-28T03:59:02;15.38;;;10.00;;
60700;SDS011;46541;49.894;10.886;2024-02-28T04:01:30;17.23;;;9.77;;
60700;SDS011;46541;49.894;10.886;2024-02-28T04:03:57;18.35;;;10.48;;
60700;SDS011;46541;49.894;10.886;2024-02-28T04:06:24;17.75;;;9.98;;
60700;SDS011;46541;49.894;10.886;2024-02-28T04:08:51;17.90;;;10.70;;
60700;SDS011;46541;49.894;10.886;2024-02-28T04:11:18;17.80;;;9.82;;
60700;SDS011;46541;49.894;10.886;2024-02-28T04:13:45;17.05;;;9.05;;
60700;SDS011;46541;49.894;10.886;2024-02-28T04:16:11;14.18;;;9.30;;
60700;SDS011;46541;49.894;10.886;2024-02-28T04:18:39;15.10;;;9.75;;
60700;SDS011;46541;49.894;10.886;2024-02-28T04:21:06;15.85;;;9.70;;
60700;SDS011;46541;49.894;10.886;2024-02-28T04:23:32;15.07;;;8.93;;
60700;SDS011;46541;49.894;10.886;2024-02-28T04:25:59;17.02;;;10.32;;
60700;SDS011;46541;49.894;10.886;2024-02-28T04:28:26;16.20;;;9.80;;
60700;SDS011;46541;49.894;10.886;2024-02-28T04:30:53;14.85;;;9.35;;
60700;SDS011;46541;49.894;10.886;2024-02-28T04:33:20;15.98;;;8.95;;
60700;SDS011;46541;49.894;10.886;2024-02-28T04:35:47;16.33;;;10.00;;
60700;SDS011;46541;49.894;10.886;2024-02-28T04:38:13;15.98;;;10.15;;
60700;SDS011;46541;49.894;10.886;2024-02-28T04:40:40;14.18;;;8.63;;
60700;SDS011;46541;49.894;10.886;2024-02-28T04:43:07;17.85;;;9.30;;
60700;SDS011;46541;49.894;10.886;2024-02-28T04:45:34;18.02;;;9.65;;
60700;SDS011;46541;49.894;10.886;2024-02-28T04:48:01;20.50;;;9.55;;
60700;SDS011;46541;49.894;10.886;2024-02-28T04:50:28;17.25;;;9.43;;
60700;SDS011;46541;49.894;10.886;2024-02-28T04:52:55;16.25;;;9.65;;
60700;SDS011;46541;49.894;10.886;2024-02-28T04:55:22;19.75;;;10.05;;
60700;SDS011;46541;49.894;10.886;2024-02-28T04:57:49;16.80;;;9.65;;
60700;SDS011;46541;49.894;10.886;2024-02-28T05:00:15;18.88;;;10.13;;
60700;SDS011;46541;49.894;10.886;2024-02-28T05:02:44;16.85;;;9.63;;
60700;SDS011;46541;49.894;10.886;2024-02-28T05:05:10;22.98;;;11.38;;
60700;SDS011;46541;49.894;10.886;2024-02-28T05:07:37;19.42;;;10.75;;
60700;SDS011;46541;49.894;10.886;2024-02-28T05:10:04;18.85;;;10.40;;
60700;SDS011;46541;49.894;10.886;2024-02-28T05:12:31;18.27;;;9.90;;
60700;SDS011;46541;49.894;10.886;2024-02-28T05:14:58;19.77;;;11.38;;
60700;SDS011;46541;49.894;10.886;2024-02-28T05:17:25;20.98;;;10.40;;
60700;SDS011;46541;49.894;10.886;2024-02-28T05:19:53;19.35;;;10.50;;
60700;SDS011;46541;49.894;10.886;2024-02-28T05:22:20;19.75;;;10.55;;
60700;SDS011;46541;49.894;10.886;2024-02-28T05:24:47;18.90;;;10.48;;
60700;SDS011;46541;49.894;10.886;2024-02-28T05:27:14;17.67;;;10.10;;
60700;SDS011;46541;49.894;10.886;2024-02-28T05:29:40;18.90;;;10.20;;
60700;SDS011;46541;49.894;10.886;2024-02-28T05:32:09;17.60;;;9.70;;
60700;SDS011;46541;49.894;10.886;2024-02-28T05:34:35;17.63;;;10.30;;
60700;SDS011;46541;49.894;10.886;2024-02-28T05:37:02;17.65;;;10.45;;
60700;SDS011;46541;49.894;10.886;2024-02-28T05:39:29;22.33;;;11.02;;
60700;SDS011;46541;49.894;10.886;2024-02-28T05:41:57;18.90;;;10.80;;
60700;SDS011;46541;49.894;10.886;2024-02-28T05:44:23;19.65;;;10.85;;
60700;SDS011;46541;49.894;10.886;2024-02-28T05:46:50;18.42;;;10.70;;
60700;SDS011;46541;49.894;10.886;2024-02-28T05:49:17;17.67;;;9.63;;
60700;SDS011;46541;49.894;10.886;2024-02-28T05:51:44;20.33;;;11.43;;
60700;SDS011;46541;49.894;10.886;2024-02-28T05:54:12;20.77;;;12.02;;
60700;SDS011;46541;49.894;10.886;2024-02-28T05:56:39;22.98;;;11.95;;
60700;SDS011;46541;49.894;10.886;2024-02-28T05:59:06;22.55;;;11.73;;
60700;SDS011;46541;49.894;10.886;2024-02-28T06:01:32;20.08;;;11.55;;
60700;SDS011;46541;49.894;10.886;2024-02-28T06:03:59;19.63;;;10.88;;
60700;SDS011;46541;49.894;10.886;2024-02-28T06:06:26;20.02;;;10.93;;
60700;SDS011;46541;49.894;10.886;2024-02-28T06:08:53;22.20;;;11.40;;
60700;SDS011;46541;49.894;10.886;2024-02-28T06:11:19;21.20;;;11.18;;
60700;SDS011;46541;49.894;10.886;2024-02-28T06:13:46;20.55;;;11.20;;
60700;SDS011;46541;49.894;10.886;2024-02-28T06:16:16;22.20;;;11.95;;
60700;SDS011;46541;49.894;10.886;2024-02-28T06:18:44;19.23;;;11.35;;
60700;SDS011;46541;49.894;10.886;2024-02-28T06:21:12;20.88;;;10.82;;
60700;SDS011;46541;49.894;10.886;2024-02-28T06:23:39;20.25;;;12.20;;
60700;SDS011;46541;49.894;10.886;2024-02-28T06:26:06;19.20;;;10.55;;
60700;SDS011;46541;49.894;10.886;2024-02-28T06:28:33;19.50;;;11.10;;
60700;SDS011;46541;49.894;10.886;2024-02-28T06:31:00;18.77;;;11.32;;
60700;SDS011;46541;49.894;10.886;2024-02-28T06:33:27;21.70;;;11.18;;
60700;SDS011;46541;49.894;10.886;2024-02-28T06:35:54;23.45;;;12.00;;
60700;SDS011;46541;49.894;10.886;2024-02-28T06:38:21;22.98;;;11.38;;
60700;SDS011;46541;49.894;10.886;2024-02-28T06:40:47;17.67;;;11.15;;
60700;SDS011;46541;49.894;10.886;2024-02-28T06:43:14;20.40;;;11.23;;
60700;SDS011;46541;49.894;10.886;2024-02-28T06:45:42;21.63;;;11.63;;
60700;SDS011;46541;49.894;10.886;2024-02-28T06:48:09;20.73;;;11.48;;
60700;SDS011;46541;49.894;10.886;2024-02-28T06:50:36;27.55;;;16.27;;
60700;SDS011;46541;49.894;10.886;2024-02-28T06:53:02;25.23;;;13.88;;
60700;SDS011;46541;49.894;10.886;2024-02-28T06:55:30;26.08;;;14.13;;
60700;SDS011;46541;49.894;10.886;2024-02-28T06:57:57;24.63;;;12.52;;
60700;SDS011;46541;49.894;10.886;2024-02-28T07:00:24;25.48;;;13.88;;
60700;SDS011;46541;49.894;10.886;2024-02-28T07:02:51;22.00;;;13.13;;
60700;SDS011;46541;49.894;10.886;2024-02-28T07:05:18;25.27;;;13.35;;
60700;SDS011;46541;49.894;10.886;2024-02-28T07:07:44;20.85;;;11.32;;
60700;SDS011;46541;49.894;10.886;2024-02-28T07:10:11;31.70;;;18.00;;
60700;SDS011;46541;49.894;10.886;2024-02-28T07:12:38;25.90;;;14.45;;
60700;SDS011;46541;49.894;10.886;2024-02-28T07:15:05;23.35;;;13.65;;
60700;SDS011;46541;49.894;10.886;2024-02-28T07:17:32;29.08;;;15.07;;
60700;SDS011;46541;49.894;10.886;2024-02-28T07:19:59;54.80;;;32.97;;
60700;SDS011;46541;49.894;10.886;2024-02-28T07:22:25;31.48;;;17.58;;
60700;SDS011;46541;49.894;10.886;2024-02-28T07:24:52;21.85;;;12.57;;
60700;SDS011;46541;49.894;10.886;2024-02-28T07:27:21;23.42;;;12.63;;
60700;SDS011;46541;49.894;10.886;2024-02-28T07:29:49;22.23;;;12.35;;
60700;SDS011;46541;49.894;10.886;2024-02-28T07:32:16;23.13;;;12.57;;
60700;SDS011;46541;49.894;10.886;2024-02-28T07:34:42;19.95;;;11.60;;
60700;SDS011;46541;49.894;10.886;2024-02-28T07:37:09;21.02;;;12.00;;
60700;SDS011;46541;49.894;10.886;2024-02-28T07:39:36;26.50;;;13.07;;
60700;SDS011;46541;49.894;10.886;2024-02-28T07:42:03;20.73;;;11.52;;
60700;SDS011;46541;49.894;10.886;2024-02-28T07:44:30;22.60;;;12.02;;
60700;SDS011;46541;49.894;10.886;2024-02-28T07:46:57;19.88;;;11.43;;
60700;SDS011;46541;49.894;10.886;2024-02-28T07:49:25;19.25;;;11.02;;
60700;SDS011;46541;49.894;10.886;2024-02-28T07:51:54;22.15;;;11.43;;
60700;SDS011;46541;49.894;10.886;2024-02-28T07:54:21;18.45;;;11.13;;
60700;SDS011;46541;49.894;10.886;2024-02-28T07:56:48;20.98;;;11.13;;
60700;SDS011;46541;49.894;10.886;2024-02-28T07:59:15;19.30;;;11.50;;
60700;SDS011;46541;49.894;10.886;2024-02-28T08:01:42;21.35;;;10.77;;
60700;SDS011;46541;49.894;10.886;2024-02-28T08:04:09;23.30;;;11.63;;
60700;SDS011;46541;49.894;10.886;2024-02-28T08:06:36;17.30;;;9.82;;
60700;SDS011;46541;49.894;10.886;2024-02-28T08:09:03;20.80;;;11.63;;
60700;SDS011;46541;49.894;10.886;2024-02-28T08:11:30;20.08;;;10.88;;
60700;SDS011;46541;49.894;10.886;2024-02-28T08:13:57;23.58;;;11.55;;
60700;SDS011;46541;49.894;10.886;2024-02-28T08:16:24;19.33;;;10.90;;
60700;SDS011;46541;49.894;10.886;2024-02-28T08:18:53;17.10;;;9.98;;
60700;SDS011;46541;49.894;10.886;2024-02-28T08:21:20;18.50;;;10.75;;
60700;SDS011;46541;49.894;10.886;2024-02-28T08:23:47;21.98;;;10.52;;
60700;SDS011;46541;49.894;10.886;2024-02-28T08:26:14;20.42;;;11.60;;
60700;SDS011;46541;49.894;10.886;2024-02-28T08:28:41;18.77;;;10.68;;
60700;SDS011;46541;49.894;10.886;2024-02-28T08:31:08;20.05;;;10.60;;
60700;SDS011;46541;49.894;10.886;2024-02-28T08:33:35;20.83;;;12.45;;
60700;SDS011;46541;49.894;10.886;2024-02-28T08:36:02;19.73;;;10.85;;
60700;SDS011;46541;49.894;10.886;2024-02-28T08:38:28;18.77;;;10.32;;
60700;SDS011;46541;49.894;10.886;2024-02-28T08:40:55;18.35;;;10.48;;
60700;SDS011;46541;49.894;10.886;2024-02-28T08:43:22;18.63;;;10.68;;
60700;SDS011;46541;49.894;10.886;2024-02-28T08:45:49;16.48;;;9.18;;
60700;SDS011;46541;49.894;10.886;2024-02-28T08:48:18;20.80;;;10.13;;
60700;SDS011;46541;49.894;10.886;2024-02-28T08:50:44;16.00;;;9.88;;
60700;SDS011;46541;49.894;10.886;2024-02-28T08:53:11;16.27;;;8.95;;
60700;SDS011;46541;49.894;10.886;2024-02-28T08:55:38;13.52;;;8.60;;
60700;SDS011;46541;49.894;10.886;2024-02-28T08:58:05;14.32;;;8.98;;
60700;SDS011;46541;49.894;10.886;2024-02-28T09:00:32;15.50;;;8.90;;
60700;SDS011;46541;49.894;10.886;2024-02-28T09:02:58;13.73;;;8.73;;
60700;SDS011;46541;49.894;10.886;2024-02-28T09:05:25;17.63;;;9.48;;
60700;SDS011;46541;49.894;10.886;2024-02-28T09:07:52;14.50;;;8.80;;
60700;SDS011;46541;49.894;10.886;2024-02-28T09:10:21;14.75;;;8.85;;
60700;SDS011;46541;49.894;10.886;2024-02-28T09:12:50;17.67;;;9.32;;
60700;SDS011;46541;49.894;10.886;2024-02-28T09:15:17;17.40;;;9.75;;
60700;SDS011;46541;49.894;10.886;2024-02-28T09:17:45;17.15;;;9.68;;
60700;SDS011;46541;49.894;10.886;2024-02-28T09:20:11;16.15;;;9.63;;
60700;SDS011;46541;49.894;10.886;2024-02-28T09:22:38;14.32;;;9.00;;
60700;SDS011;46541;49.894;10.886;2024-02-28T09:25:06;15.18;;;9.07;;
60700;SDS011;46541;49.894;10.886;2024-02-28T09:27:35;27.30;;;14.48;;
60700;SDS011;46541;49.894;10.886;2024-02-28T09:30:03;28.67;;;14.88;;
60700;SDS011;46541;49.894;10.886;2024-02-28T09:32:30;20.27;;;11.02;;
60700;SDS011;46541;49.894;10.886;2024-02-28T09:34:56;17.38;;;10.77;;
60700;SDS011;46541;49.894;10.886;2024-02-28T09:37:23;18.15;;;10.48;;
60700;SDS011;46541;49.894;10.886;2024-02-28T09:39:51;18.58;;;9.90;;
60700;SDS011;46541;49.894;10.886;2024-02-28T09:42:19;17.77;;;10.88;;
60700;SDS011;46541;49.894;10.886;2024-02-28T09:44:46;19.13;;;11.02;;
60700;SDS011;46541;49.894;10.886;2024-02-28T09:47:14;18.92;;;11.43;;
60700;SDS011;46541;49.894;10.886;2024-02-28T09:49:44;21.90;;;11.30;;
60700;SDS011;46541;49.894;10.886;2024-02-28T09:52:14;23.25;;;13.65;;
60700;SDS011;46541;49.894;10.886;2024-02-28T09:54:41;36.97;;;21.27;;
60700;SDS011;46541;49.894;10.886;2024-02-28T09:57:10;22.63;;;13.23;;
60700;SDS011;46541;49.894;10.886;2024-02-28T09:59:39;20.05;;;11.63;;
60700;SDS011;46541;49.894;10.886;2024-02-28T10:02:19;18.88;;;11.43;;
60700;SDS011;46541;49.894;10.886;2024-02-28T10:04:49;21.40;;;12.38;;
60700;SDS011;46541;49.894;10.886;2024-02-28T10:07:17;24.30;;;12.50;;
60700;SDS011;46541;49.894;10.886;2024-02-28T10:09:44;19.60;;;11.70;;
60700;SDS011;46541;49.894;10.886;2024-02-28T10:12:11;18.38;;;10.75;;
60700;SDS011;46541;49.894;10.886;2024-02-28T10:14:38;17.40;;;10.13;;
60700;SDS011;46541;49.894;10.886;2024-02-28T10:17:05;15.10;;;9.98;;
60700;SDS011;46541;49.894;10.886;2024-02-28T10:19:32;25.30;;;14.85;;
60700;SDS011;46541;49.894;10.886;2024-02-28T10:21:59;19.25;;;10.85;;
60700;SDS011;46541;49.894;10.886;2024-02-28T10:24:26;22.38;;;13.07;;
60700;SDS011;46541;49.894;10.886;2024-02-28T10:26:54;19.63;;;11.15;;
60700;SDS011;46541;49.894;10.886;2024-02-28T10:29:24;17.77;;;10.48;;
60700;SDS011;46541;49.894;10.886;2024-02-28T10:31:51;18.85;;;10.60;;
60700;SDS011;46541;49.894;10.886;2024-02-28T10:34:18;21.50;;;11.90;;
60700;SDS011;46541;49.894;10.886;2024-02-28T10:36:45;21.27;;;10.90;;
60700;SDS011;46541;49.894;10.886;2024-02-28T10:39:13;16.77;;;10.88;;
60700;SDS011;46541;49.894;10.886;2024-02-28T10:41:40;20.02;;;12.18;;
60700;SDS011;46541;49.894;10.886;2024-02-28T10:44:08;28.77;;;15.20;;
60700;SDS011;46541;49.894;10.886;2024-02-28T10:46:37;19.70;;;10.90;;
60700;SDS011;46541;49.894;10.886;2024-02-28T10:49:05;18.45;;;10.63;;
60700;SDS011;46541;49.894;10.886;2024-02-28T10:51:35;20.95;;;11.40;;
60700;SDS011;46541;49.894;10.886;2024-02-28T10:54:10;19.20;;;10.82;;
60700;SDS011;46541;49.894;10.886;2024-02-28T10:56:39;18.08;;;10.68;;
60700;SDS011;46541;49.894;10.886;2024-02-28T10:59:08;21.23;;;11.55;;
60700;SDS011;46541;49.894;10.886;2024-02-28T11:01:39;16.98;;;10.40;;
60700;SDS011;46541;49.894;10.886;2024-02-28T11:04:12;20.08;;;10.43;;
60700;SDS011;46541;49.894;10.886;2024-02-28T11:06:48;19.55;;;9.98;;
60700;SDS011;46541;49.894;10.886;2024-02-28T11:09:21;18.33;;;9.82;;
60700;SDS011;46541;49.894;10.886;2024-02-28T11:11:54;16.15;;;9.40;;
60700;SDS011;46541;49.894;10.886;2024-02-28T11:14:22;17.63;;;10.68;;
60700;SDS011;46541;49.894;10.886;2024-02-28T11:17:04;17.75;;;10.15;;
60700;SDS011;46541;49.894;10.886;2024-02-28T11:19:32;17.42;;;8.05;;
60700;SDS011;46541;49.894;10.886;2024-02-28T11:22:01;11.73;;;7.32;;
60700;SDS011;46541;49.894;10.886;2024-02-28T11:24:32;12.15;;;7.97;;
60700;SDS011;46541;49.894;10.886;2024-02-28T11:27:01;12.55;;;8.23;;
60700;SDS011;46541;49.894;10.886;2024-02-28T11:29:30;13.90;;;8.38;;
60700;SDS011;46541;49.894;10.886;2024-02-28T11:31:57;12.20;;;7.90;;
60700;SDS011;46541;49.894;10.886;2024-02-28T11:34:24;13.80;;;7.75;;
60700;SDS011;46541;49.894;10.886;2024-02-28T11:36:51;12.07;;;7.50;;
60700;SDS011;46541;49.894;10.886;2024-02-28T11:39:19;11.70;;;7.28;;
60700;SDS011;46541;49.894;10.886;2024-02-28T11:41:47;11.70;;;7.78;;
60700;SDS011;46541;49.894;10.886;2024-02-28T11:44:16;12.85;;;8.20;;
60700;SDS011;46541;49.894;10.886;2024-02-28T11:46:47;14.60;;;8.10;;
60700;SDS011;46541;49.894;10.886;2024-02-28T11:49:15;12.57;;;7.40;;
60700;SDS011;46541;49.894;10.886;2024-02-28T11:51:43;11.82;;;7.82;;
60700;SDS011;46541;49.894;10.886;2024-02-28T11:54:11;9.75;;;6.60;;
60700;SDS011;46541;49.894;10.886;2024-02-28T11:56:38;12.57;;;6.75;;
60700;SDS011;46541;49.894;10.886;2024-02-28T11:59:06;14.50;;;8.75;;
60700;SDS011;46541;49.894;10.886;2024-02-28T12:01:35;12.65;;;7.82;;
60700;SDS011;46541;49.894;10.886;2024-02-28T12:04:03;12.50;;;8.02;;
60700;SDS011;46541;49.894;10.886;2024-02-28T12:06:32;11.73;;;7.15;;
60700;SDS011;46541;49.894;10.886;2024-02-28T12:09:04;11.98;;;7.63;;
60700;SDS011;46541;49.894;10.886;2024-02-28T12:11:37;9.55;;;6.95;;
60700;SDS011;46541;49.894;10.886;2024-02-28T12:14:05;11.68;;;7.47;;
60700;SDS011;46541;49.894;10.886;2024-02-28T12:16:38;12.23;;;8.05;;
60700;SDS011;46541;49.894;10.886;2024-02-28T12:19:09;11.13;;;7.15;;
60700;SDS011;46541;49.894;10.886;2024-02-28T12:21:37;15.95;;;9.05;;
60700;SDS011;46541;49.894;10.886;2024-02-28T12:24:08;12.25;;;6.85;;
60700;SDS011;46541;49.894;10.886;2024-02-28T12:26:40;11.05;;;7.28;;
60700;SDS011;46541;49.894;10.886;2024-02-28T12:29:07;10.18;;;6.60;;
60700;SDS011;46541;49.894;10.886;2024-02-28T12:31:37;11.00;;;6.93;;
60700;SDS011;46541;49.894;10.886;2024-02-28T12:34:04;10.68;;;5.82;;
60700;SDS011;46541;49.894;10.886;2024-02-28T12:36:31;8.95;;;6.05;;
60700;SDS011;46541;49.894;10.886;2024-02-28T12:38:59;8.43;;;5.32;;
60700;SDS011;46541;49.894;10.886;2024-02-28T12:41:29;7.18;;;4.85;;
60700;SDS011;46541;49.894;10.886;2024-02-28T12:43:57;10.77;;;5.95;;
60700;SDS011;46541;49.894;10.886;2024-02-28T12:46:23;8.20;;;5.53;;
60700;SDS011;46541;49.894;10.886;2024-02-28T12:48:50;9.45;;;5.43;;
60700;SDS011;46541;49.894;10.886;2024-02-28T12:51:31;8.48;;;5.18;;
60700;SDS011;46541;49.894;10.886;2024-02-28T12:54:03;7.77;;;5.10;;
60700;SDS011;46541;49.894;10.886;2024-02-28T12:56:30;8.65;;;5.05;;
60700;SDS011;46541;49.894;10.886;2024-02-28T12:58:57;7.28;;;4.93;;
60700;SDS011;46541;49.894;10.886;2024-02-28T13:01:24;7.90;;;5.15;;
60700;SDS011;46541;49.894;10.886;2024-02-28T13:03:51;10.20;;;5.32;;
60700;SDS011;46541;49.894;10.886;2024-02-28T13:06:19;8.50;;;5.47;;
60700;SDS011;46541;49.894;10.886;2024-02-28T13:08:46;7.32;;;4.15;;
60700;SDS011;46541;49.894;10.886;2024-02-28T13:11:21;6.65;;;4.28;;
60700;SDS011;46541;49.894;10.886;2024-02-28T13:13:50;6.55;;;4.03;;
60700;SDS011;46541;49.894;10.886;2024-02-28T13:16:20;6.72;;;4.10;;
60700;SDS011;46541;49.894;10.886;2024-02-28T13:18:50;6.03;;;3.70;;
60700;SDS011;46541;49.894;10.886;2024-02-28T13:21:17;11.48;;;4.55;;
60700;SDS011;46541;49.894;10.886;2024-02-28T13:23:44;6.50;;;4.10;;
60700;SDS011;46541;49.894;10.886;2024-02-28T13:26:11;7.50;;;4.35;;
60700;SDS011;46541;49.894;10.886;2024-02-28T13:28:44;7.28;;;3.75;;
60700;SDS011;46541;49.894;10.886;2024-02-28T13:31:15;6.90;;;4.40;;
60700;SDS011;46541;49.894;10.886;2024-02-28T13:33:43;7.00;;;4.32;;
60700;SDS011;46541;49.894;10.886;2024-02-28T13:36:09;7.45;;;4.78;;
60700;SDS011;46541;49.894;10.886;2024-02-28T13:38:36;8.25;;;4.40;;
60700;SDS011;46541;49.894;10.886;2024-02-28T13:41:03;9.10;;;5.10;;
60700;SDS011;46541;49.894;10.886;2024-02-28T13:43:30;8.32;;;5.45;;
60700;SDS011;46541;49.894;10.886;2024-02-28T13:45:58;7.95;;;4.82;;
60700;SDS011;46541;49.894;10.886;2024-02-28T13:48:27;9.52;;;4.70;;
60700;SDS011;46541;49.894;10.886;2024-02-28T13:50:59;7.40;;;4.38;;
60700;SDS011;46541;49.894;10.886;2024-02-28T13:53:28;7.38;;;4.07;;
60700;SDS011;46541;49.894;10.886;2024-02-28T13:55:54;9.65;;;4.80;;
60700;SDS011;46541;49.894;10.886;2024-02-28T13:58:21;7.13;;;4.10;;
60700;SDS011;46541;49.894;10.886;2024-02-28T14:00:48;6.28;;;3.90;;
60700;SDS011;46541;49.894;10.886;2024-02-28T14:03:15;8.95;;;4.95;;
60700;SDS011;46541;49.894;10.886;2024-02-28T14:05:42;8.75;;;4.32;;
60700;SDS011;46541;49.894;10.886;2024-02-28T14:08:09;5.43;;;3.80;;
60700;SDS011;46541;49.894;10.886;2024-02-28T14:10:39;7.75;;;3.60;;
60700;SDS011;46541;49.894;10.886;2024-02-28T14:13:06;6.10;;;3.65;;
60700;SDS011;46541;49.894;10.886;2024-02-28T14:15:33;7.32;;;3.75;;
60700;SDS011;46541;49.894;10.886;2024-02-28T14:18:02;5.57;;;3.30;;